Time,TemperatureF,DewpointF,PressureIn,WindDirection,WindDirectionDegrees,WindSpeedMPH,WindSpeedGustMPH,Humidity,HourlyPrecipIn,Conditions,Clouds,dailyrainin,SoftwareType,DateUTC
2013-09-03 00:03:00,46.0,45.0,-100.00,ENE,60,0.0,0.0,98,-99.99,,,-99.99,,2013-09-03 05:03:00,
2013-09-03 00:12:00,44.0,44.0,-100.00,WNW,290,0.0,0.0,98,-99.99,,,-99.99,,2013-09-03 05:12:00,
2013-09-03 00:43:00,44.0,44.0,-100.00,WNW,290,0.0,0.0,98,-99.99,,,-99.99,,2013-09-03 05:43:00,
2013-09-03 00:52:00,44.0,44.0,-100.00,WNW,290,0.0,0.0,98,-99.99,,,-99.99,,2013-09-03 05:52:00,
2013-09-03 01:02:00,44.0,44.0,-100.00,WNW,290,0.0,0.0,98,-99.99,,,-99.99,,2013-09-03 06:02:00,
2013-09-03 01:11:00,43.0,42.0,-100.00,WNW,290,0.0,0.0,98,-99.99,,,-99.99,,2013-09-03 06:11:00,
2013-09-03 01:43:00,43.0,42.0,-100.00,WNW,290,0.0,0.0,98,-99.99,,,-99.99,,2013-09-03 06:43:00,
2013-09-03 01:52:00,43.0,42.0,-100.00,WNW,290,0.0,0.0,98,-99.99,,,-99.99,,2013-09-03 06:52:00,
2013-09-03 02:02:00,43.0,42.0,-100.00,WNW,290,0.0,0.0,98,-99.99,,,-99.99,,2013-09-03 07:02:00,
2013-09-03 02:10:00,42.0,41.0,-100.00,WNW,300,0.0,0.0,98,-99.99,,,-99.99,,2013-09-03 07:10:00,
2013-09-03 02:42:00,42.0,41.0,-100.00,WNW,300,0.0,0.0,98,-99.99,,,-99.99,,2013-09-03 07:42:00,
2013-09-03 02:53:00,42.0,41.0,-100.00,WNW,300,0.0,0.0,98,-99.99,,,-99.99,,2013-09-03 07:53:00,
2013-09-03 03:03:00,42.0,41.0,-100.00,WNW,300,0.0,0.0,98,-99.99,,,-99.99,,2013-09-03 08:03:00,
2013-09-03 03:11:00,40.0,40.0,-100.00,WNW,300,0.0,1.0,98,-99.99,,,-99.99,,2013-09-03 08:11:00,
2013-09-03 03:42:00,40.0,40.0,-100.00,WNW,300,0.0,1.0,98,-99.99,,,-99.99,,2013-09-03 08:42:00,
2013-09-03 03:52:00,40.0,40.0,-100.00,WNW,300,0.0,1.0,98,-99.99,,,-99.99,,2013-09-03 08:52:00,
2013-09-03 04:02:00,40.0,40.0,-100.00,WNW,300,0.0,1.0,98,-99.99,,,-99.99,,2013-09-03 09:02:00,
2013-09-03 04:11:00,39.0,39.0,-100.00,WNW,300,0.0,0.0,98,-99.99,,,-99.99,,2013-09-03 09:11:00,
2013-09-03 04:43:00,39.0,39.0,-100.00,WNW,300,0.0,0.0,98,-99.99,,,-99.99,,2013-09-03 09:43:00,
2013-09-03 04:53:00,39.0,39.0,-100.00,WNW,300,0.0,0.0,98,-99.99,,,-99.99,,2013-09-03 09:53:00,
2013-09-03 05:03:00,39.0,39.0,-100.00,WNW,300,0.0,0.0,98,-99.99,,,-99.99,,2013-09-03 10:03:00,
2013-09-03 05:12:00,38.0,37.0,-100.00,NNW,335,0.0,0.0,98,-99.99,,,-99.99,,2013-09-03 10:12:00,
2013-09-03 05:42:00,38.0,37.0,-100.00,NNW,335,0.0,0.0,98,-99.99,,,-99.99,,2013-09-03 10:42:00,
2013-09-03 05:53:00,38.0,37.0,-100.00,NNW,335,0.0,0.0,98,-99.99,,,-99.99,,2013-09-03 10:53:00,
2013-09-03 06:02:00,38.0,37.0,-100.00,NNW,335,0.0,0.0,98,-99.99,,,-99.99,,2013-09-03 11:02:00,
2013-09-03 06:43:00,39.0,38.0,-100.00,NW,325,0.0,0.0,98,-99.99,,,-99.99,,2013-09-03 11:43:00,
2013-09-03 06:52:00,39.0,38.0,-100.00,NW,325,0.0,0.0,98,-99.99,,,-99.99,,2013-09-03 11:52:00,
2013-09-03 07:02:00,39.0,38.0,-100.00,NW,325,0.0,0.0,98,-99.99,,,-99.99,,2013-09-03 12:02:00,
2013-09-03 07:11:00,44.0,43.0,-100.00,SW,220,1.0,2.0,98,-99.99,,,-99.99,,2013-09-03 12:11:00,
2013-09-03 07:12:00,39.0,38.0,-100.00,NW,325,0.0,0.0,98,-99.99,,,-99.99,,2013-09-03 12:12:00,
2013-09-03 07:42:00,44.0,43.0,-100.00,SW,220,1.0,2.0,98,-99.99,,,-99.99,,2013-09-03 12:42:00,
2013-09-03 07:52:00,44.0,43.0,-100.00,SW,220,1.0,2.0,98,-99.99,,,-99.99,,2013-09-03 12:52:00,
2013-09-03 08:02:00,44.0,43.0,-100.00,SW,220,1.0,2.0,98,-99.99,,,-99.99,,2013-09-03 13:02:00,
2013-09-03 08:10:00,47.0,46.0,-100.00,SW,225,2.0,6.0,98,-99.99,,,-99.99,,2013-09-03 13:10:00,
2013-09-03 08:42:00,47.0,46.0,-100.00,SW,225,2.0,6.0,98,-99.99,,,-99.99,,2013-09-03 13:42:00,
2013-09-03 08:52:00,47.0,46.0,-100.00,SW,225,2.0,6.0,98,-99.99,,,-99.99,,2013-09-03 13:52:00,
2013-09-03 09:02:00,47.0,46.0,-100.00,SW,225,2.0,6.0,98,-99.99,,,-99.99,,2013-09-03 14:02:00,
2013-09-03 09:42:00,52.0,51.0,-100.00,SW,235,0.0,2.0,98,-99.99,,,-99.99,,2013-09-03 14:42:00,
2013-09-03 09:52:00,52.0,51.0,-100.00,SW,235,0.0,2.0,98,-99.99,,,-99.99,,2013-09-03 14:52:00,
2013-09-03 10:02:00,52.0,51.0,-100.00,SW,235,0.0,2.0,98,-99.99,,,-99.99,,2013-09-03 15:02:00,
2013-09-03 10:11:00,60.0,51.0,-100.00,West,260,0.0,0.0,73,-99.99,,,-99.99,,2013-09-03 15:11:00,
2013-09-03 10:43:00,60.0,51.0,-100.00,West,260,0.0,0.0,73,-99.99,,,-99.99,,2013-09-03 15:43:00,
2013-09-03 10:54:00,60.0,51.0,-100.00,West,260,0.0,0.0,73,-99.99,,,-99.99,,2013-09-03 15:54:00,
2013-09-03 11:04:00,60.0,51.0,-100.00,West,260,0.0,0.0,73,-99.99,,,-99.99,,2013-09-03 16:04:00,
2013-09-03 11:12:00,67.0,50.0,-100.00,WSW,240,0.0,0.0,55,-99.99,,,-99.99,,2013-09-03 16:12:00,
2013-09-03 11:43:00,67.0,50.0,-100.00,WSW,240,0.0,0.0,55,-99.99,,,-99.99,,2013-09-03 16:43:00,
2013-09-03 11:54:00,67.0,50.0,-100.00,WSW,240,0.0,0.0,55,-99.99,,,-99.99,,2013-09-03 16:54:00,
2013-09-03 12:03:00,67.0,50.0,-100.00,WSW,240,0.0,0.0,55,-99.99,,,-99.99,,2013-09-03 17:03:00,
2013-09-03 20:10:00,66.0,50.0,-100.00,SSW,195,0.0,3.0,57,-99.99,,,-99.99,,2013-09-04 01:10:00,
2013-09-03 20:42:00,66.0,50.0,-100.00,SSW,195,0.0,3.0,57,-99.99,,,-99.99,,2013-09-04 01:42:00,
2013-09-03 20:53:00,66.0,50.0,-100.00,SSW,195,0.0,3.0,57,-99.99,,,-99.99,,2013-09-04 01:53:00,
2013-09-03 21:02:00,66.0,50.0,-100.00,SSW,195,0.0,3.0,57,-99.99,,,-99.99,,2013-09-04 02:02:00,
2013-09-03 21:43:00,62.0,54.0,-100.00,SSW,200,0.0,1.0,76,-99.99,,,-99.99,,2013-09-04 02:43:00,
2013-09-03 21:52:00,62.0,54.0,-100.00,SSW,200,0.0,1.0,76,-99.99,,,-99.99,,2013-09-04 02:52:00,
2013-09-03 22:03:00,62.0,54.0,-100.00,SSW,200,0.0,1.0,76,-99.99,,,-99.99,,2013-09-04 03:03:00,
2013-09-03 22:11:00,62.0,54.0,-100.00,SSW,200,0.0,1.0,76,-99.99,,,-99.99,,2013-09-04 03:11:00,
2013-09-03 22:44:00,59.0,54.0,-100.00,North,-999,-999.0,-999.0,84,-99.99,,,-99.99,,2013-09-04 03:44:00,
2013-09-03 22:54:00,59.0,54.0,-100.00,North,-999,-999.0,-999.0,84,-99.99,,,-99.99,,2013-09-04 03:54:00,
2013-09-03 23:04:00,59.0,54.0,-100.00,North,-999,-999.0,-999.0,84,-99.99,,,-99.99,,2013-09-04 04:04:00,
2013-09-03 23:11:00,59.0,55.0,-100.00,SSW,205,0.0,2.0,87,-99.99,,,-99.99,,2013-09-04 04:11:00,
2013-09-03 23:44:00,59.0,55.0,-100.00,SSW,205,0.0,2.0,87,-99.99,,,-99.99,,2013-09-04 04:44:00,
2013-09-03 23:54:00,59.0,55.0,-100.00,SSW,205,0.0,2.0,87,-99.99,,,-99.99,,2013-09-04 04:54:00,